sensor_id;sensor_type;location;lat;lon;timestamp;pressure;altitude;pressure_sealevel;temperature;humidity
73106;BME280;61559;50.476;15.588;2023-11-21T00:01:09;96914.95;;;5.28;93.31
73106;BME280;61559;50.476;15.588;2023-11-21T00:03:43;96920.73;;;5.22;93.42
73106;BME280;61559;50.476;15.588;2023-11-21T00:06:15;96917.59;;;5.19;93.68
73106;BME280;61559;50.476;15.588;2023-11-21T00:08:46;96918.98;;;5.16;93.79
73106;BME280;61559;50.476;15.588;2023-11-21T00:11:17;96921.75;;;5.13;93.78
73106;BME280;61559;50.476;15.588;2023-11-21T00:13:47;96924.98;;;5.12;93.97
73106;BME280;61559;50.476;15.588;2023-11-21T00:16:20;96925.54;;;5.08;94.03
73106;BME280;61559;50.476;15.588;2023-11-21T00:18:52;96923.46;;;5.06;94.22
73106;BME280;61559;50.476;15.588;2023-11-21T00:21:23;96927.11;;;5.04;94.12
73106;BME280;61559;50.476;15.588;2023-11-21T00:23:53;96925.87;;;5.03;94.01
73106;BME280;61559;50.476;15.588;2023-11-21T00:26:24;96924.90;;;5.03;94.33
73106;BME280;61559;50.476;15.588;2023-11-21T00:28:55;96929.92;;;5.05;94.58
73106;BME280;61559;50.476;15.588;2023-11-21T00:31:26;96930.27;;;5.08;94.71
73106;BME280;61559;50.476;15.588;2023-11-21T00:33:58;96933.64;;;5.08;94.53
73106;BME280;61559;50.476;15.588;2023-11-21T00:36:29;96935.09;;;5.04;94.27
73106;BME280;61559;50.476;15.588;2023-11-21T00:39:00;96936.72;;;4.99;94.29
73106;BME280;61559;50.476;15.588;2023-11-21T00:41:31;96937.23;;;4.96;94.56
73106;BME280;61559;50.476;15.588;2023-11-21T00:44:03;96934.60;;;4.97;94.97
73106;BME280;61559;50.476;15.588;2023-11-21T00:46:34;96933.08;;;4.99;95.08
73106;BME280;61559;50.476;15.588;2023-11-21T00:49:05;96930.93;;;5.02;95.17
73106;BME280;61559;50.476;15.588;2023-11-21T00:51:38;96933.37;;;5.03;94.90
73106;BME280;61559;50.476;15.588;2023-11-21T00:54:09;96933.94;;;5.03;94.69
73106;BME280;61559;50.476;15.588;2023-11-21T00:56:40;96936.40;;;5.02;94.78
73106;BME280;61559;50.476;15.588;2023-11-21T00:59:12;96938.00;;;5.01;94.71
73106;BME280;61559;50.476;15.588;2023-11-21T01:01:43;96941.17;;;5.00;94.88
73106;BME280;61559;50.476;15.588;2023-11-21T01:04:14;96942.20;;;5.00;94.89
73106;BME280;61559;50.476;15.588;2023-11-21T01:06:46;96943.30;;;5.02;95.00
73106;BME280;61559;50.476;15.588;2023-11-21T01:09:17;96943.07;;;5.03;95.06
73106;BME280;61559;50.476;15.588;2023-11-21T01:11:47;96944.88;;;5.04;95.06
73106;BME280;61559;50.476;15.588;2023-11-21T01:14:18;96937.97;;;5.03;94.97
73106;BME280;61559;50.476;15.588;2023-11-21T01:16:49;96936.58;;;5.01;94.71
73106;BME280;61559;50.476;15.588;2023-11-21T01:19:21;96939.16;;;4.99;94.44
73106;BME280;61559;50.476;15.588;2023-11-21T01:21:52;96937.97;;;4.95;94.14
73106;BME280;61559;50.476;15.588;2023-11-21T01:24:23;96934.17;;;4.92;94.37
73106;BME280;61559;50.476;15.588;2023-11-21T01:26:53;96937.27;;;4.93;94.64
73106;BME280;61559;50.476;15.588;2023-11-21T01:29:24;96937.47;;;4.91;94.59
73106;BME280;61559;50.476;15.588;2023-11-21T01:31:53;96936.20;;;4.90;94.52
73106;BME280;61559;50.476;15.588;2023-11-21T01:34:24;96935.02;;;4.89;94.57
73106;BME280;61559;50.476;15.588;2023-11-21T01:36:56;96934.15;;;4.85;94.29
73106;BME280;61559;50.476;15.588;2023-11-21T01:39:27;96927.24;;;4.72;94.02
73106;BME280;61559;50.476;15.588;2023-11-21T01:41:59;96926.78;;;4.66;94.31
73106;BME280;61559;50.476;15.588;2023-11-21T01:44:31;96925.77;;;4.62;94.63
73106;BME280;61559;50.476;15.588;2023-11-21T01:47:06;96931.27;;;4.56;94.61
73106;BME280;61559;50.476;15.588;2023-11-21T01:49:37;96927.77;;;4.52;94.72
73106;BME280;61559;50.476;15.588;2023-11-21T01:52:08;96927.16;;;4.53;95.08
73106;BME280;61559;50.476;15.588;2023-11-21T01:54:42;96926.30;;;4.55;95.49
73106;BME280;61559;50.476;15.588;2023-11-21T01:57:13;96919.46;;;4.58;95.71
73106;BME280;61559;50.476;15.588;2023-11-21T01:59:46;96919.90;;;4.63;95.88
73106;BME280;61559;50.476;15.588;2023-11-21T02:02:19;96922.95;;;4.67;95.88
73106;BME280;61559;50.476;15.588;2023-11-21T02:04:51;96921.61;;;4.70;95.96
73106;BME280;61559;50.476;15.588;2023-11-21T02:07:22;96924.79;;;4.75;96.16
73106;BME280;61559;50.476;15.588;2023-11-21T02:09:52;96933.17;;;4.83;96.31
73106;BME280;61559;50.476;15.588;2023-11-21T02:12:23;96933.88;;;4.86;96.31
73106;BME280;61559;50.476;15.588;2023-11-21T02:14:56;96934.45;;;4.92;96.20
73106;BME280;61559;50.476;15.588;2023-11-21T02:17:27;96937.64;;;4.96;96.05
73106;BME280;61559;50.476;15.588;2023-11-21T02:19:59;96939.08;;;4.98;95.87
73106;BME280;61559;50.476;15.588;2023-11-21T02:22:33;96933.81;;;5.02;95.84
73106;BME280;61559;50.476;15.588;2023-11-21T02:25:07;96931.30;;;5.05;95.88
73106;BME280;61559;50.476;15.588;2023-11-21T02:27:39;96931.61;;;5.07;95.70
73106;BME280;61559;50.476;15.588;2023-11-21T02:30:12;96930.77;;;5.08;95.67
73106;BME280;61559;50.476;15.588;2023-11-21T02:32:43;96929.17;;;5.09;95.70
73106;BME280;61559;50.476;15.588;2023-11-21T02:35:18;96927.56;;;5.10;95.50
73106;BME280;61559;50.476;15.588;2023-11-21T02:37:50;96925.19;;;5.12;95.57
73106;BME280;61559;50.476;15.588;2023-11-21T02:40:20;96923.73;;;5.14;95.48
73106;BME280;61559;50.476;15.588;2023-11-21T02:42:54;96924.86;;;5.13;95.39
73106;BME280;61559;50.476;15.588;2023-11-21T02:45:29;96920.27;;;5.13;95.34
73106;BME280;61559;50.476;15.588;2023-11-21T02:48:00;96915.20;;;5.14;95.33
73106;BME280;61559;50.476;15.588;2023-11-21T02:50:32;96915.45;;;5.14;95.41
73106;BME280;61559;50.476;15.588;2023-11-21T02:53:05;96917.67;;;5.15;95.45
73106;BME280;61559;50.476;15.588;2023-11-21T02:55:36;96919.32;;;5.11;95.43
73106;BME280;61559;50.476;15.588;2023-11-21T02:58:08;96918.05;;;5.10;95.55
73106;BME280;61559;50.476;15.588;2023-11-21T03:00:37;96913.92;;;5.10;95.81
73106;BME280;61559;50.476;15.588;2023-11-21T03:03:10;96913.61;;;5.11;96.04
73106;BME280;61559;50.476;15.588;2023-11-21T03:05:41;96913.69;;;5.15;96.15
73106;BME280;61559;50.476;15.588;2023-11-21T03:08:13;96911.21;;;5.17;96.18
73106;BME280;61559;50.476;15.588;2023-11-21T03:10:44;96914.65;;;5.18;96.08
73106;BME280;61559;50.476;15.588;2023-11-21T03:13:15;96915.02;;;5.20;96.09
73106;BME280;61559;50.476;15.588;2023-11-21T03:15:47;96921.83;;;5.21;96.02
73106;BME280;61559;50.476;15.588;2023-11-21T03:18:18;96919.33;;;5.20;95.84
73106;BME280;61559;50.476;15.588;2023-11-21T03:20:53;96918.86;;;5.21;95.90
73106;BME280;61559;50.476;15.588;2023-11-21T03:23:24;96920.12;;;5.22;95.91
73106;BME280;61559;50.476;15.588;2023-11-21T03:25:54;96918.66;;;5.23;96.05
73106;BME280;61559;50.476;15.588;2023-11-21T03:28:25;96920.05;;;5.23;96.03
73106;BME280;61559;50.476;15.588;2023-11-21T03:30:56;96921.50;;;5.24;95.97
73106;BME280;61559;50.476;15.588;2023-11-21T03:33:28;96925.54;;;5.26;95.91
73106;BME280;61559;50.476;15.588;2023-11-21T03:35:57;96927.36;;;5.27;95.79
73106;BME280;61559;50.476;15.588;2023-11-21T03:38:28;96926.80;;;5.28;95.86
73106;BME280;61559;50.476;15.588;2023-11-21T03:41:00;96929.25;;;5.31;95.90
73106;BME280;61559;50.476;15.588;2023-11-21T03:43:32;96931.17;;;5.31;95.80
73106;BME280;61559;50.476;15.588;2023-11-21T03:46:03;96929.95;;;5.31;95.81
73106;BME280;61559;50.476;15.588;2023-11-21T03:48:34;96933.56;;;5.32;95.81
73106;BME280;61559;50.476;15.588;2023-11-21T03:51:06;96934.54;;;5.34;95.95
73106;BME280;61559;50.476;15.588;2023-11-21T03:53:37;96934.71;;;5.36;95.91
73106;BME280;61559;50.476;15.588;2023-11-21T03:56:09;96938.63;;;5.37;95.90
73106;BME280;61559;50.476;15.588;2023-11-21T03:58:40;96943.95;;;5.38;95.86
73106;BME280;61559;50.476;15.588;2023-11-21T04:01:11;96946.64;;;5.39;95.85
73106;BME280;61559;50.476;15.588;2023-11-21T04:03:41;96950.63;;;5.42;95.85
73106;BME280;61559;50.476;15.588;2023-11-21T04:06:13;96951.77;;;5.41;95.78
73106;BME280;61559;50.476;15.588;2023-11-21T04:08:44;96953.90;;;5.44;95.93
73106;BME280;61559;50.476;15.588;2023-11-21T04:11:15;96951.52;;;5.46;95.85
73106;BME280;61559;50.476;15.588;2023-11-21T04:13:45;96950.66;;;5.48;95.82
73106;BME280;61559;50.476;15.588;2023-11-21T04:16:17;96953.19;;;5.49;95.88
73106;BME280;61559;50.476;15.588;2023-11-21T04:18:48;96951.67;;;5.51;95.90
73106;BME280;61559;50.476;15.588;2023-11-21T04:21:18;96953.08;;;5.52;95.86
73106;BME280;61559;50.476;15.588;2023-11-21T04:23:49;96951.84;;;5.52;95.97
73106;BME280;61559;50.476;15.588;2023-11-21T04:26:20;96954.34;;;5.55;96.04
73106;BME280;61559;50.476;15.588;2023-11-21T04:28:50;96955.72;;;5.58;95.97
73106;BME280;61559;50.476;15.588;2023-11-21T04:31:21;96954.51;;;5.57;95.88
73106;BME280;61559;50.476;15.588;2023-11-21T04:33:53;96958.15;;;5.57;95.61
73106;BME280;61559;50.476;15.588;2023-11-21T04:36:24;96957.27;;;5.57;95.54
73106;BME280;61559;50.476;15.588;2023-11-21T04:38:54;96958.89;;;5.57;95.59
73106;BME280;61559;50.476;15.588;2023-11-21T04:41:25;96954.83;;;5.56;95.64
73106;BME280;61559;50.476;15.588;2023-11-21T04:43:56;96960.90;;;5.57;95.66
73106;BME280;61559;50.476;15.588;2023-11-21T04:46:28;96959.88;;;5.57;95.69
73106;BME280;61559;50.476;15.588;2023-11-21T04:49:00;96963.76;;;5.57;95.61
73106;BME280;61559;50.476;15.588;2023-11-21T04:51:31;96963.86;;;5.57;95.65
73106;BME280;61559;50.476;15.588;2023-11-21T04:54:02;96964.29;;;5.56;95.64
73106;BME280;61559;50.476;15.588;2023-11-21T04:56:31;96963.35;;;5.54;95.66
73106;BME280;61559;50.476;15.588;2023-11-21T04:59:03;96966.81;;;5.52;95.65
73106;BME280;61559;50.476;15.588;2023-11-21T05:01:34;96970.17;;;5.51;95.70
73106;BME280;61559;50.476;15.588;2023-11-21T05:04:06;96966.98;;;5.51;95.78
73106;BME280;61559;50.476;15.588;2023-11-21T05:06:38;96965.52;;;5.51;95.77
73106;BME280;61559;50.476;15.588;2023-11-21T05:09:10;96967.52;;;5.52;95.78
73106;BME280;61559;50.476;15.588;2023-11-21T05:11:41;96967.39;;;5.54;95.90
73106;BME280;61559;50.476;15.588;2023-11-21T05:14:11;96967.98;;;5.55;95.85
73106;BME280;61559;50.476;15.588;2023-11-21T05:16:44;96967.73;;;5.55;95.88
73106;BME280;61559;50.476;15.588;2023-11-21T05:19:15;96975.77;;;5.56;95.88
73106;BME280;61559;50.476;15.588;2023-11-21T05:21:46;96975.03;;;5.58;95.75
73106;BME280;61559;50.476;15.588;2023-11-21T05:24:16;96975.91;;;5.57;95.69
73106;BME280;61559;50.476;15.588;2023-11-21T05:26:47;96974.34;;;5.57;95.82
73106;BME280;61559;50.476;15.588;2023-11-21T05:29:18;96975.47;;;5.59;95.83
73106;BME280;61559;50.476;15.588;2023-11-21T05:31:49;96975.96;;;5.60;95.79
73106;BME280;61559;50.476;15.588;2023-11-21T05:34:23;96980.93;;;5.62;95.77
73106;BME280;61559;50.476;15.588;2023-11-21T05:36:56;96984.89;;;5.63;95.73
73106;BME280;61559;50.476;15.588;2023-11-21T05:39:28;96981.45;;;5.64;95.74
73106;BME280;61559;50.476;15.588;2023-11-21T05:41:59;96980.73;;;5.65;95.65
73106;BME280;61559;50.476;15.588;2023-11-21T05:44:30;96982.62;;;5.65;95.57
73106;BME280;61559;50.476;15.588;2023-11-21T05:47:02;96981.11;;;5.65;95.53
73106;BME280;61559;50.476;15.588;2023-11-21T05:49:33;96980.91;;;5.65;95.60
73106;BME280;61559;50.476;15.588;2023-11-21T05:52:05;96979.20;;;5.65;95.45
73106;BME280;61559;50.476;15.588;2023-11-21T05:54:36;96981.42;;;5.63;95.32
73106;BME280;61559;50.476;15.588;2023-11-21T05:57:07;96983.38;;;5.62;95.38
73106;BME280;61559;50.476;15.588;2023-11-21T05:59:39;96985.05;;;5.62;95.43
73106;BME280;61559;50.476;15.588;2023-11-21T06:02:09;96989.20;;;5.62;95.39
73106;BME280;61559;50.476;15.588;2023-11-21T06:04:40;96992.48;;;5.61;95.43
73106;BME280;61559;50.476;15.588;2023-11-21T06:07:11;96995.98;;;5.60;95.49
73106;BME280;61559;50.476;15.588;2023-11-21T06:09:42;96999.21;;;5.59;95.41
73106;BME280;61559;50.476;15.588;2023-11-21T06:12:14;97003.51;;;5.59;95.29
73106;BME280;61559;50.476;15.588;2023-11-21T06:14:46;97003.63;;;5.58;95.33
73106;BME280;61559;50.476;15.588;2023-11-21T06:17:18;97009.05;;;5.58;95.25
73106;BME280;61559;50.476;15.588;2023-11-21T06:19:50;97005.98;;;5.58;95.26
73106;BME280;61559;50.476;15.588;2023-11-21T06:22:22;97004.78;;;5.57;95.24
73106;BME280;61559;50.476;15.588;2023-11-21T06:24:54;97003.88;;;5.56;95.26
73106;BME280;61559;50.476;15.588;2023-11-21T06:27:23;97008.92;;;5.54;95.16
73106;BME280;61559;50.476;15.588;2023-11-21T06:29:53;97015.11;;;5.48;95.08
73106;BME280;61559;50.476;15.588;2023-11-21T06:32:24;97022.27;;;5.43;95.17
73106;BME280;61559;50.476;15.588;2023-11-21T06:34:56;97029.23;;;5.42;95.42
73106;BME280;61559;50.476;15.588;2023-11-21T06:37:31;97029.79;;;5.42;95.65
73106;BME280;61559;50.476;15.588;2023-11-21T06:40:03;97030.48;;;5.44;95.86
73106;BME280;61559;50.476;15.588;2023-11-21T06:42:35;97034.77;;;5.46;95.99
73106;BME280;61559;50.476;15.588;2023-11-21T06:45:09;97034.96;;;5.49;96.09
73106;BME280;61559;50.476;15.588;2023-11-21T06:47:41;97034.48;;;5.53;96.09
73106;BME280;61559;50.476;15.588;2023-11-21T06:50:13;97037.44;;;5.56;96.10
73106;BME280;61559;50.476;15.588;2023-11-21T06:52:44;97040.81;;;5.61;96.13
73106;BME280;61559;50.476;15.588;2023-11-21T06:55:16;97042.58;;;5.65;96.18
73106;BME280;61559;50.476;15.588;2023-11-21T06:57:47;97041.48;;;5.69;96.17
73106;BME280;61559;50.476;15.588;2023-11-21T07:00:17;97044.77;;;5.74;96.15
73106;BME280;61559;50.476;15.588;2023-11-21T07:02:49;97040.80;;;5.76;96.00
73106;BME280;61559;50.476;15.588;2023-11-21T07:05:22;97039.03;;;5.80;95.98
73106;BME280;61559;50.476;15.588;2023-11-21T07:07:53;97036.60;;;5.83;95.99
73106;BME280;61559;50.476;15.588;2023-11-21T07:10:25;97032.42;;;5.88;95.90
73106;BME280;61559;50.476;15.588;2023-11-21T07:12:57;97036.77;;;5.92;95.93
73106;BME280;61559;50.476;15.588;2023-11-21T07:15:28;97038.63;;;5.97;95.85
73106;BME280;61559;50.476;15.588;2023-11-21T07:17:59;97039.14;;;6.01;95.72
73106;BME280;61559;50.476;15.588;2023-11-21T07:20:31;97043.41;;;6.06;95.74
73106;BME280;61559;50.476;15.588;2023-11-21T07:23:03;97048.66;;;6.09;95.68
73106;BME280;61559;50.476;15.588;2023-11-21T07:25:35;97052.17;;;6.12;95.60
73106;BME280;61559;50.476;15.588;2023-11-21T07:28:05;97050.54;;;6.15;95.53
73106;BME280;61559;50.476;15.588;2023-11-21T07:30:36;97048.70;;;6.14;95.67
73106;BME280;61559;50.476;15.588;2023-11-21T07:33:07;97050.25;;;6.16;95.65
73106;BME280;61559;50.476;15.588;2023-11-21T07:35:38;97047.11;;;6.17;95.77
73106;BME280;61559;50.476;15.588;2023-11-21T07:38:08;97045.68;;;6.19;95.70
73106;BME280;61559;50.476;15.588;2023-11-21T07:40:39;97046.84;;;6.21;95.81
73106;BME280;61559;50.476;15.588;2023-11-21T07:43:10;97050.50;;;6.23;95.86
73106;BME280;61559;50.476;15.588;2023-11-21T07:45:40;97050.95;;;6.27;95.78
73106;BME280;61559;50.476;15.588;2023-11-21T07:48:16;97052.84;;;6.30;96.00
73106;BME280;61559;50.476;15.588;2023-11-21T07:50:47;97053.13;;;6.32;95.85
73106;BME280;61559;50.476;15.588;2023-11-21T07:53:18;97055.09;;;6.36;95.83
73106;BME280;61559;50.476;15.588;2023-11-21T07:55:50;97054.56;;;6.39;95.91
73106;BME280;61559;50.476;15.588;2023-11-21T07:58:21;97057.30;;;6.43;95.82
73106;BME280;61559;50.476;15.588;2023-11-21T08:00:53;97061.39;;;6.45;95.73
73106;BME280;61559;50.476;15.588;2023-11-21T08:03:22;97061.91;;;6.47;95.67
73106;BME280;61559;50.476;15.588;2023-11-21T08:05:54;97059.17;;;6.46;95.57
73106;BME280;61559;50.476;15.588;2023-11-21T08:08:26;97055.91;;;6.48;95.66
73106;BME280;61559;50.476;15.588;2023-11-21T08:10:57;97056.65;;;6.51;95.55
73106;BME280;61559;50.476;15.588;2023-11-21T08:13:29;97055.52;;;6.54;95.56
73106;BME280;61559;50.476;15.588;2023-11-21T08:16:01;97051.66;;;6.57;95.46
73106;BME280;61559;50.476;15.588;2023-11-21T08:18:34;97052.77;;;6.62;95.63
73106;BME280;61559;50.476;15.588;2023-11-21T08:21:05;97054.20;;;6.67;95.62
73106;BME280;61559;50.476;15.588;2023-11-21T08:23:37;97055.75;;;6.74;95.47
73106;BME280;61559;50.476;15.588;2023-11-21T08:26:08;97061.62;;;6.78;95.47
73106;BME280;61559;50.476;15.588;2023-11-21T08:28:40;97060.36;;;6.84;95.65
73106;BME280;61559;50.476;15.588;2023-11-21T08:31:11;97054.77;;;6.89;95.62
73106;BME280;61559;50.476;15.588;2023-11-21T08:33:44;97059.44;;;6.96;95.70
73106;BME280;61559;50.476;15.588;2023-11-21T08:36:14;97057.60;;;7.02;95.56
73106;BME280;61559;50.476;15.588;2023-11-21T08:38:45;97055.90;;;7.04;95.21
73106;BME280;61559;50.476;15.588;2023-11-21T08:41:14;97056.57;;;7.11;95.08
73106;BME280;61559;50.476;15.588;2023-11-21T08:43:47;97057.52;;;7.15;95.05
73106;BME280;61559;50.476;15.588;2023-11-21T08:46:18;97059.29;;;7.18;93.35
73106;BME280;61559;50.476;15.588;2023-11-21T08:48:50;97057.64;;;7.23;93.02
73106;BME280;61559;50.476;15.588;2023-11-21T08:51:22;97060.80;;;7.28;92.50
73106;BME280;61559;50.476;15.588;2023-11-21T08:53:54;97062.09;;;7.32;92.63
73106;BME280;61559;50.476;15.588;2023-11-21T08:56:29;97062.35;;;7.36;92.55
73106;BME280;61559;50.476;15.588;2023-11-21T08:59:00;97062.90;;;7.38;91.62
73106;BME280;61559;50.476;15.588;2023-11-21T09:01:32;97067.79;;;7.39;90.83
73106;BME280;61559;50.476;15.588;2023-11-21T09:04:04;97070.73;;;7.40;90.60
73106;BME280;61559;50.476;15.588;2023-11-21T09:06:36;97073.08;;;7.43;91.07
73106;BME280;61559;50.476;15.588;2023-11-21T09:09:07;97078.63;;;7.46;91.17
73106;BME280;61559;50.476;15.588;2023-11-21T09:11:39;97078.42;;;7.47;91.33
73106;BME280;61559;50.476;15.588;2023-11-21T09:14:11;97084.65;;;7.49;90.82
73106;BME280;61559;50.476;15.588;2023-11-21T09:16:42;97084.61;;;7.48;90.28
73106;BME280;61559;50.476;15.588;2023-11-21T09:19:14;97084.91;;;7.49;90.38
73106;BME280;61559;50.476;15.588;2023-11-21T09:21:45;97087.42;;;7.49;90.17
73106;BME280;61559;50.476;15.588;2023-11-21T09:24:16;97090.65;;;7.49;89.94
73106;BME280;61559;50.476;15.588;2023-11-21T09:26:47;97096.59;;;7.49;89.49
73106;BME280;61559;50.476;15.588;2023-11-21T09:29:16;97102.52;;;7.48;88.71
73106;BME280;61559;50.476;15.588;2023-11-21T09:31:48;97105.16;;;7.46;89.02
73106;BME280;61559;50.476;15.588;2023-11-21T09:34:21;97102.61;;;7.50;89.43
73106;BME280;61559;50.476;15.588;2023-11-21T09:36:52;97106.10;;;7.54;89.44
73106;BME280;61559;50.476;15.588;2023-11-21T09:39:23;97103.80;;;7.56;88.94
73106;BME280;61559;50.476;15.588;2023-11-21T09:41:59;97104.25;;;7.58;88.74
73106;BME280;61559;50.476;15.588;2023-11-21T09:44:48;97105.33;;;7.62;89.28
73106;BME280;61559;50.476;15.588;2023-11-21T09:47:25;97108.48;;;7.66;88.77
73106;BME280;61559;50.476;15.588;2023-11-21T09:49:58;97111.62;;;7.71;88.91
73106;BME280;61559;50.476;15.588;2023-11-21T09:52:35;97111.92;;;7.77;88.77
73106;BME280;61559;50.476;15.588;2023-11-21T09:55:09;97114.69;;;7.82;88.39
73106;BME280;61559;50.476;15.588;2023-11-21T09:57:45;97110.50;;;7.86;88.34
73106;BME280;61559;50.476;15.588;2023-11-21T10:00:18;97106.20;;;7.92;87.52
73106;BME280;61559;50.476;15.588;2023-11-21T10:02:53;97107.67;;;7.98;87.32
73106;BME280;61559;50.476;15.588;2023-11-21T10:05:25;97107.87;;;8.06;87.42
73106;BME280;61559;50.476;15.588;2023-11-21T10:07:59;97111.20;;;8.12;86.41
73106;BME280;61559;50.476;15.588;2023-11-21T10:10:32;97106.54;;;8.17;86.56
73106;BME280;61559;50.476;15.588;2023-11-21T10:13:05;97106.81;;;8.24;86.38
73106;BME280;61559;50.476;15.588;2023-11-21T10:15:37;97105.30;;;8.32;85.87
73106;BME280;61559;50.476;15.588;2023-11-21T10:18:09;97107.27;;;8.38;85.39
73106;BME280;61559;50.476;15.588;2023-11-21T10:20:40;97104.77;;;8.46;86.33
73106;BME280;61559;50.476;15.588;2023-11-21T10:23:13;97106.99;;;8.54;85.65
73106;BME280;61559;50.476;15.588;2023-11-21T10:25:45;97102.28;;;8.53;84.11
73106;BME280;61559;50.476;15.588;2023-11-21T10:28:16;97104.61;;;8.55;84.77
73106;BME280;61559;50.476;15.588;2023-11-21T10:30:49;97105.69;;;8.57;84.49
73106;BME280;61559;50.476;15.588;2023-11-21T10:33:28;97109.63;;;8.54;83.71
73106;BME280;61559;50.476;15.588;2023-11-21T10:35:59;97112.73;;;8.49;83.18
73106;BME280;61559;50.476;15.588;2023-11-21T10:38:35;97121.27;;;8.40;81.61
73106;BME280;61559;50.476;15.588;2023-11-21T10:41:13;97121.02;;;8.30;81.31
73106;BME280;61559;50.476;15.588;2023-11-21T10:43:46;97120.27;;;8.21;81.75
73106;BME280;61559;50.476;15.588;2023-11-21T10:46:17;97124.48;;;8.17;82.75
73106;BME280;61559;50.476;15.588;2023-11-21T10:48:53;97125.80;;;8.14;82.80
73106;BME280;61559;50.476;15.588;2023-11-21T10:51:26;97126.85;;;8.09;82.93
73106;BME280;61559;50.476;15.588;2023-11-21T10:53:58;97128.58;;;8.07;83.19
73106;BME280;61559;50.476;15.588;2023-11-21T10:56:30;97127.91;;;8.07;83.55
73106;BME280;61559;50.476;15.588;2023-11-21T10:59:05;97122.53;;;8.06;83.63
73106;BME280;61559;50.476;15.588;2023-11-21T11:01:36;97124.26;;;8.07;84.02
73106;BME280;61559;50.476;15.588;2023-11-21T11:04:09;97122.66;;;8.08;83.99
73106;BME280;61559;50.476;15.588;2023-11-21T11:06:48;97121.91;;;8.09;84.36
73106;BME280;61559;50.476;15.588;2023-11-21T11:09:21;97119.68;;;8.11;84.65
73106;BME280;61559;50.476;15.588;2023-11-21T11:11:53;97114.61;;;8.14;84.62
73106;BME280;61559;50.476;15.588;2023-11-21T11:14:25;97111.69;;;8.15;84.04
73106;BME280;61559;50.476;15.588;2023-11-21T11:16:56;97112.95;;;8.15;84.18
73106;BME280;61559;50.476;15.588;2023-11-21T11:19:30;97109.39;;;8.14;84.14
73106;BME280;61559;50.476;15.588;2023-11-21T11:22:07;97111.41;;;8.11;83.84
73106;BME280;61559;50.476;15.588;2023-11-21T11:24:58;97114.27;;;8.07;83.71
73106;BME280;61559;50.476;15.588;2023-11-21T11:27:40;97112.96;;;8.04;84.27
73106;BME280;61559;50.476;15.588;2023-11-21T11:30:20;97114.23;;;8.03;84.53
73106;BME280;61559;50.476;15.588;2023-11-21T11:33:04;97113.59;;;8.01;84.60
73106;BME280;61559;50.476;15.588;2023-11-21T11:35:45;97113.23;;;8.02;85.01
73106;BME280;61559;50.476;15.588;2023-11-21T11:38:19;97113.52;;;8.00;84.80
73106;BME280;61559;50.476;15.588;2023-11-21T11:40:53;97111.29;;;7.99;84.95
73106;BME280;61559;50.476;15.588;2023-11-21T11:43:27;97112.38;;;7.99;85.23
73106;BME280;61559;50.476;15.588;2023-11-21T11:45:59;97113.46;;;7.97;84.65
73106;BME280;61559;50.476;15.588;2023-11-21T11:48:36;97117.21;;;7.93;84.22
73106;BME280;61559;50.476;15.588;2023-11-21T11:51:13;97117.90;;;7.88;84.01
73106;BME280;61559;50.476;15.588;2023-11-21T11:53:47;97122.84;;;7.84;84.29
73106;BME280;61559;50.476;15.588;2023-11-21T11:56:23;97123.55;;;7.80;84.51
73106;BME280;61559;50.476;15.588;2023-11-21T11:58:57;97125.30;;;7.75;84.38
73106;BME280;61559;50.476;15.588;2023-11-21T12:01:31;97126.58;;;7.71;84.67
73106;BME280;61559;50.476;15.588;2023-11-21T12:04:27;97124.33;;;7.67;84.78
73106;BME280;61559;50.476;15.588;2023-11-21T12:07:05;97125.41;;;7.63;85.07
73106;BME280;61559;50.476;15.588;2023-11-21T12:09:38;97129.08;;;7.60;85.27
73106;BME280;61559;50.476;15.588;2023-11-21T12:12:10;97127.23;;;7.58;85.56
73106;BME280;61559;50.476;15.588;2023-11-21T12:14:42;97130.58;;;7.57;85.74
73106;BME280;61559;50.476;15.588;2023-11-21T12:17:13;97130.48;;;7.57;85.74
73106;BME280;61559;50.476;15.588;2023-11-21T12:19:44;97134.25;;;7.58;85.83
73106;BME280;61559;50.476;15.588;2023-11-21T12:22:16;97130.77;;;7.57;85.70
73106;BME280;61559;50.476;15.588;2023-11-21T12:24:48;97133.10;;;7.59;86.06
73106;BME280;61559;50.476;15.588;2023-11-21T12:27:20;97124.73;;;7.60;85.87
73106;BME280;61559;50.476;15.588;2023-11-21T12:29:51;97126.27;;;7.61;86.08
73106;BME280;61559;50.476;15.588;2023-11-21T12:32:23;97128.00;;;7.64;86.28
73106;BME280;61559;50.476;15.588;2023-11-21T12:34:55;97127.98;;;7.66;86.30
73106;BME280;61559;50.476;15.588;2023-11-21T12:37:26;97125.79;;;7.70;86.46
73106;BME280;61559;50.476;15.588;2023-11-21T12:39:57;97124.87;;;7.73;86.53
73106;BME280;61559;50.476;15.588;2023-11-21T12:42:30;97127.71;;;7.75;86.65
73106;BME280;61559;50.476;15.588;2023-11-21T12:45:19;97128.38;;;7.76;87.10
73106;BME280;61559;50.476;15.588;2023-11-21T12:47:52;97130.16;;;7.77;87.10
73106;BME280;61559;50.476;15.588;2023-11-21T12:50:25;97131.09;;;7.77;87.13
73106;BME280;61559;50.476;15.588;2023-11-21T12:53:02;97133.17;;;7.74;87.13
73106;BME280;61559;50.476;15.588;2023-11-21T12:55:35;97136.38;;;7.70;87.37
73106;BME280;61559;50.476;15.588;2023-11-21T12:58:09;97134.67;;;7.67;87.64
73106;BME280;61559;50.476;15.588;2023-11-21T13:00:44;97132.28;;;7.64;88.04
73106;BME280;61559;50.476;15.588;2023-11-21T13:03:16;97137.35;;;7.63;88.21
73106;BME280;61559;50.476;15.588;2023-11-21T13:05:50;97139.61;;;7.63;88.44
73106;BME280;61559;50.476;15.588;2023-11-21T13:08:25;97143.14;;;7.63;88.55
73106;BME280;61559;50.476;15.588;2023-11-21T13:10:58;97147.33;;;7.63;88.73
73106;BME280;61559;50.476;15.588;2023-11-21T13:13:30;97146.45;;;7.62;88.64
73106;BME280;61559;50.476;15.588;2023-11-21T13:16:02;97147.92;;;7.62;89.00
73106;BME280;61559;50.476;15.588;2023-11-21T13:18:35;97146.88;;;7.63;89.14
73106;BME280;61559;50.476;15.588;2023-11-21T13:21:07;97142.15;;;7.66;89.14
73106;BME280;61559;50.476;15.588;2023-11-21T13:23:43;97142.19;;;7.68;89.25
73106;BME280;61559;50.476;15.588;2023-11-21T13:26:16;97139.02;;;7.69;89.17